Time;durP1;ratioP1;P1;durP2;ratioP2;P2;SDS_P1;SDS_P2;PMS_P1;PMS_P2;Temp;Humidity;BMP_temperature;BMP_pressure;BME280_temperature;BME280_humidity;BME280_pressure;Samples;Min_cycle;Max_cycle;Signal;HPM_P1;HPM_P2
2021/04/12 00:01:08;;;;;;;8.02;3.05;;;;;;;;;;5052200;28;20140;-64
2021/04/12 00:03:54;;;;;;;9.40;3.08;;;;;;;;;;5051588;28;20495;-64
2021/04/12 00:06:22;;;;;;;5.38;2.38;;;;;;;;;;5051204;28;20113;-64
2021/04/12 00:08:50;;;;;;;9.98;3.72;;;;;;;;;;5051499;28;20109;-65
2021/04/12 00:11:29;;;;;;;8.38;3.13;;;;;;;;;;5052111;28;20037;-64
2021/04/12 00:14:18;;;;;;;6.25;2.30;;;;;;;;;;5051667;28;20029;-64
2021/04/12 00:16:43;;;;;;;9.57;3.03;;;;;;;;;;5040907;28;20080;-64
2021/04/12 00:19:21;;;;;;;5.25;2.60;;;;;;;;;;5050402;28;20496;-64
2021/04/12 00:21:46;;;;;;;7.15;3.38;;;;;;;;;;5051885;28;20076;-64
2021/04/12 00:24:15;;;;;;;5.57;2.85;;;;;;;;;;5051537;28;20410;-64
2021/04/12 00:26:50;;;;;;;11.27;3.25;;;;;;;;;;5051658;28;20115;-64
2021/04/12 00:29:19;;;;;;;5.43;3.07;;;;;;;;;;5051426;28;20441;-64
2021/04/12 00:32:07;;;;;;;5.07;3.10;;;;;;;;;;5051522;28;20033;-64
2021/04/12 00:34:37;;;;;;;5.90;3.08;;;;;;;;;;5047868;28;20044;-64
2021/04/12 00:37:08;;;;;;;7.22;2.55;;;;;;;;;;5051575;28;20056;-64
2021/04/12 00:39:39;;;;;;;5.30;2.88;;;;;;;;;;5051121;28;20099;-64
2021/04/12 00:42:08;;;;;;;6.35;2.50;;;;;;;;;;5043883;28;20055;-64
2021/04/12 00:44:58;;;;;;;4.05;2.50;;;;;;;;;;5051252;28;20536;-64
2021/04/12 00:47:43;;;;;;;4.43;2.65;;;;;;;;;;5051480;28;20033;-64
2021/04/12 00:50:23;;;;;;;11.40;2.47;;;;;;;;;;5050990;28;20481;-64
2021/04/12 00:53:13;;;;;;;3.83;2.97;;;;;;;;;;5051157;28;20540;-64
2021/04/12 00:55:45;;;;;;;4.32;1.98;;;;;;;;;;5051447;28;20389;-65
2021/04/12 00:58:22;;;;;;;4.38;2.08;;;;;;;;;;5051269;28;20033;-65
2021/04/12 01:01:07;;;;;;;3.75;2.25;;;;;;;;;;5050960;28;20362;-64
2021/04/12 01:03:41;;;;;;;4.28;1.50;;;;;;;;;;5009525;28;20056;-64
2021/04/12 01:06:12;;;;;;;5.28;1.95;;;;;;;;;;5050690;28;20517;-65
2021/04/12 01:08:44;;;;;;;7.40;1.83;;;;;;;;;;5047985;28;20040;-65
2021/04/12 01:11:21;;;;;;;4.15;1.92;;;;;;;;;;5050349;28;20534;-65
2021/04/12 01:13:58;;;;;;;3.90;1.70;;;;;;;;;;5050858;28;20081;-64
2021/04/12 01:16:29;;;;;;;4.00;1.80;;;;;;;;;;5050869;28;20029;-65
2021/04/12 01:19:01;;;;;;;4.20;2.03;;;;;;;;;;5051168;28;20052;-64
2021/04/12 01:21:26;;;;;;;6.03;1.60;;;;;;;;;;5047596;28;20083;-65
2021/04/12 01:23:54;;;;;;;10.32;2.08;;;;;;;;;;5046548;28;20029;-64
2021/04/12 01:26:28;;;;;;;3.20;1.45;;;;;;;;;;5050895;28;20025;-64
2021/04/12 01:28:54;;;;;;;6.85;2.08;;;;;;;;;;5051070;28;20037;-64
2021/04/12 01:31:38;;;;;;;6.00;1.65;;;;;;;;;;5053793;28;20044;-64
2021/04/12 01:34:22;;;;;;;4.70;2.20;;;;;;;;;;5054840;28;20028;-65
2021/04/12 01:36:50;;;;;;;4.10;1.85;;;;;;;;;;5054723;28;20017;-64
2021/04/12 01:39:33;;;;;;;6.40;2.10;;;;;;;;;;5054856;28;20196;-65
2021/04/12 01:42:00;;;;;;;4.80;1.60;;;;;;;;;;5054248;28;20044;-65
2021/04/12 01:44:25;;;;;;;5.13;1.90;;;;;;;;;;5054630;28;20462;-65
2021/04/12 01:47:08;;;;;;;7.03;1.90;;;;;;;;;;5054855;28;20107;-65
2021/04/12 01:49:45;;;;;;;4.38;1.67;;;;;;;;;;5054804;28;20424;-65
2021/04/12 01:52:13;;;;;;;4.50;1.80;;;;;;;;;;5054210;28;20036;-65
2021/04/12 01:54:48;;;;;;;8.65;2.80;;;;;;;;;;5054549;28;20039;-65
2021/04/12 01:57:14;;;;;;;4.97;1.70;;;;;;;;;;5054596;28;20445;-65
2021/04/12 01:59:46;;;;;;;3.67;1.45;;;;;;;;;;5054081;28;20112;-65
2021/04/12 02:02:16;;;;;;;5.75;1.90;;;;;;;;;;5053392;28;20404;-65
2021/04/12 02:04:52;;;;;;;3.97;1.67;;;;;;;;;;5054573;28;20044;-64
2021/04/12 02:07:24;;;;;;;5.03;2.05;;;;;;;;;;5053774;28;20527;-65
2021/04/12 02:09:58;;;;;;;8.25;2.63;;;;;;;;;;5054496;28;20115;-65
2021/04/12 02:12:39;;;;;;;5.47;2.20;;;;;;;;;;5054177;28;20033;-64
2021/04/12 02:15:08;;;;;;;6.75;1.70;;;;;;;;;;5054170;28;20040;-65
2021/04/12 02:18:02;;;;;;;9.05;3.00;;;;;;;;;;5053935;28;20037;-65
2021/04/12 02:20:27;;;;;;;6.50;2.05;;;;;;;;;;4995803;28;20038;-65
2021/04/12 02:23:08;;;;;;;5.63;1.77;;;;;;;;;;5053772;28;20102;-65
2021/04/12 02:25:34;;;;;;;3.08;1.85;;;;;;;;;;5054190;28;20044;-65
2021/04/12 02:28:17;;;;;;;3.33;1.75;;;;;;;;;;5053735;28;20041;-64
2021/04/12 02:30:52;;;;;;;3.95;1.98;;;;;;;;;;5053806;28;20374;-65
2021/04/12 02:33:40;;;;;;;5.28;2.03;;;;;;;;;;5053141;28;20438;-65
2021/04/12 02:36:20;;;;;;;4.00;1.48;;;;;;;;;;5053581;28;20064;-65
2021/04/12 02:38:57;;;;;;;4.38;2.33;;;;;;;;;;5053316;28;20512;-65
2021/04/12 02:41:26;;;;;;;8.05;1.92;;;;;;;;;;5052791;28;20036;-65
2021/04/12 02:44:16;;;;;;;5.55;2.10;;;;;;;;;;5053434;28;20052;-65
2021/04/12 02:47:00;;;;;;;6.20;1.95;;;;;;;;;;5053882;28;20087;-65
2021/04/12 02:49:44;;;;;;;5.03;2.03;;;;;;;;;;5053476;28;20078;-65
2021/04/12 02:52:10;;;;;;;7.07;2.03;;;;;;;;;;5053550;28;20115;-65
2021/04/12 02:54:54;;;;;;;4.68;2.20;;;;;;;;;;5052944;28;20923;-65
2021/04/12 02:57:33;;;;;;;5.18;2.33;;;;;;;;;;5053248;28;20545;-65
2021/04/12 03:00:16;;;;;;;7.93;2.42;;;;;;;;;;5053216;28;20108;-65
2021/04/12 03:03:00;;;;;;;6.53;2.15;;;;;;;;;;5052696;28;20473;-65
2021/04/12 03:05:44;;;;;;;5.53;2.33;;;;;;;;;;5053052;28;20151;-65
2021/04/12 03:08:22;;;;;;;7.30;2.15;;;;;;;;;;5053189;28;20033;-65
2021/04/12 03:11:12;;;;;;;4.57;2.30;;;;;;;;;;5053157;28;20035;-65
2021/04/12 03:14:09;;;;;;;3.28;1.92;;;;;;;;;;5053156;28;20127;-65
2021/04/12 03:16:35;;;;;;;4.63;2.20;;;;;;;;;;5052534;28;20024;-65
2021/04/12 03:19:08;;;;;;;5.13;2.35;;;;;;;;;;5053097;28;20029;-65
2021/04/12 03:21:41;;;;;;;6.30;2.30;;;;;;;;;;5052806;28;20389;-65
2021/04/12 03:24:13;;;;;;;4.63;2.20;;;;;;;;;;5052566;28;20444;-65
2021/04/12 03:26:47;;;;;;;7.70;2.95;;;;;;;;;;5052648;28;20033;-65
2021/04/12 03:29:18;;;;;;;9.80;2.97;;;;;;;;;;5052568;28;20029;-65
2021/04/12 03:32:04;;;;;;;7.28;3.47;;;;;;;;;;5052785;28;20486;-65
2021/04/12 03:34:32;;;;;;;5.38;3.08;;;;;;;;;;5052824;28;20136;-65
2021/04/12 03:37:00;;;;;;;8.70;2.50;;;;;;;;;;5052344;28;20070;-65
2021/04/12 03:39:38;;;;;;;4.00;2.17;;;;;;;;;;5052376;28;20140;-65
2021/04/12 03:42:22;;;;;;;3.90;2.03;;;;;;;;;;5052745;28;20132;-65
2021/04/12 03:45:05;;;;;;;8.55;2.53;;;;;;;;;;5052793;28;20047;-65
2021/04/12 03:47:49;;;;;;;5.38;2.55;;;;;;;;;;5052063;28;20057;-65
2021/04/12 03:50:14;;;;;;;8.60;3.13;;;;;;;;;;5052254;28;20443;-65
2021/04/12 03:52:45;;;;;;;12.20;3.47;;;;;;;;;;5052102;28;20116;-65
2021/04/12 03:55:30;;;;;;;12.23;4.13;;;;;;;;;;5051891;28;20033;-65
2021/04/12 03:58:05;;;;;;;5.65;2.08;;;;;;;;;;5051687;28;20481;-65
2021/04/12 04:00:49;;;;;;;9.43;2.40;;;;;;;;;;5052391;28;20040;-65
2021/04/12 04:03:14;;;;;;;6.90;2.22;;;;;;;;;;5052056;28;20071;-65
2021/04/12 04:05:46;;;;;;;7.00;2.10;;;;;;;;;;5052001;28;20060;-65
2021/04/12 04:08:30;;;;;;;7.78;2.40;;;;;;;;;;5052015;28;20025;-65
2021/04/12 04:10:58;;;;;;;7.72;2.30;;;;;;;;;;5052186;28;20044;-65
2021/04/12 04:13:42;;;;;;;5.68;2.60;;;;;;;;;;5051930;28;20029;-65
2021/04/12 04:16:13;;;;;;;6.50;2.50;;;;;;;;;;5052094;28;20037;-65
2021/04/12 04:18:53;;;;;;;5.75;2.17;;;;;;;;;;5051236;28;20037;-66
2021/04/12 04:21:18;;;;;;;5.10;2.08;;;;;;;;;;5051742;28;20040;-66
2021/04/12 04:24:00;;;;;;;3.78;2.08;;;;;;;;;;5051707;28;20033;-65
2021/04/12 04:26:44;;;;;;;6.45;2.22;;;;;;;;;;5051863;28;20025;-65
2021/04/12 04:29:09;;;;;;;5.63;2.25;;;;;;;;;;5051380;28;20116;-65
2021/04/12 04:31:53;;;;;;;7.65;2.80;;;;;;;;;;5052140;28;20113;-66
2021/04/12 04:34:31;;;;;;;6.22;2.42;;;;;;;;;;5051624;28;20048;-65
2021/04/12 04:37:11;;;;;;;4.10;2.30;;;;;;;;;;5050592;28;21086;-65
2021/04/12 04:39:55;;;;;;;4.20;1.88;;;;;;;;;;5051530;28;20049;-65
2021/04/12 04:42:29;;;;;;;5.35;2.30;;;;;;;;;;5051404;28;20041;-65
2021/04/12 04:44:55;;;;;;;10.48;2.78;;;;;;;;;;5051721;28;20033;-65
2021/04/12 04:47:23;;;;;;;5.95;2.15;;;;;;;;;;5051423;28;20087;-66
2021/04/12 04:50:08;;;;;;;4.68;2.17;;;;;;;;;;5050904;28;20032;-65
2021/04/12 04:52:57;;;;;;;5.57;2.30;;;;;;;;;;5051473;28;20033;-65
2021/04/12 04:55:42;;;;;;;6.70;2.22;;;;;;;;;;5040798;28;20052;-65
2021/04/12 04:58:13;;;;;;;7.68;2.20;;;;;;;;;;5050971;28;20075;-65
2021/04/12 05:00:52;;;;;;;6.05;2.55;;;;;;;;;;5051497;28;20025;-65
2021/04/12 05:03:30;;;;;;;7.97;2.05;;;;;;;;;;5050903;28;20128;-65
2021/04/12 05:06:01;;;;;;;3.75;2.00;;;;;;;;;;5050273;28;20477;-65
2021/04/12 05:08:35;;;;;;;3.72;2.05;;;;;;;;;;5051094;28;20130;-65
2021/04/12 05:11:10;;;;;;;4.70;2.20;;;;;;;;;;5051469;28;20043;-65
2021/04/12 05:13:44;;;;;;;5.15;2.20;;;;;;;;;;5050878;28;20037;-65
2021/04/12 05:16:09;;;;;;;8.23;2.15;;;;;;;;;;5051272;28;20058;-65
2021/04/12 05:18:35;;;;;;;5.82;2.08;;;;;;;;;;5050683;28;20029;-65
2021/04/12 05:21:12;;;;;;;4.38;2.42;;;;;;;;;;5051161;28;20071;-65
2021/04/12 05:23:50;;;;;;;5.57;2.60;;;;;;;;;;5051109;28;20043;-65
2021/04/12 05:26:22;;;;;;;6.22;2.60;;;;;;;;;;5050555;28;20491;-65
2021/04/12 05:29:06;;;;;;;8.13;2.30;;;;;;;;;;5051021;28;20057;-65
2021/04/12 05:31:50;;;;;;;5.07;2.10;;;;;;;;;;5050648;28;20465;-65
2021/04/12 05:34:26;;;;;;;4.30;2.20;;;;;;;;;;5050712;28;20033;-65
2021/04/12 05:36:51;;;;;;;;;;;;;;;;;;5051639;28;20044;-65
2021/04/12 05:39:28;;;;;;;3.70;1.98;;;;;;;;;;5050278;28;20370;-66
2021/04/12 05:42:02;;;;;;;4.80;2.30;;;;;;;;;;5050740;28;20045;-65
2021/04/12 05:44:31;;;;;;;7.28;2.30;;;;;;;;;;5050579;28;20539;-66
2021/04/12 05:47:14;;;;;;;7.47;2.67;;;;;;;;;;5050870;28;20109;-65
2021/04/12 05:49:49;;;;;;;8.32;2.20;;;;;;;;;;5050055;28;20055;-65
2021/04/12 05:52:17;;;;;;;6.75;2.35;;;;;;;;;;5050654;28;20044;-66
2021/04/12 05:54:48;;;;;;;7.25;2.50;;;;;;;;;;5049729;28;20067;-65
2021/04/12 05:57:29;;;;;;;4.82;2.50;;;;;;;;;;5050574;28;20099;-65
2021/04/12 06:00:10;;;;;;;6.50;2.40;;;;;;;;;;5050424;28;20057;-65
2021/04/12 06:02:41;;;;;;;6.18;2.50;;;;;;;;;;5050436;28;20071;-66
2021/04/12 06:05:09;;;;;;;9.15;2.40;;;;;;;;;;5050967;28;20051;-65
2021/04/12 06:07:37;;;;;;;7.53;2.20;;;;;;;;;;5050499;28;20102;-66
2021/04/12 06:10:05;;;;;;;4.63;2.00;;;;;;;;;;5050942;28;20017;-65
2021/04/12 06:12:49;;;;;;;3.90;1.92;;;;;;;;;;5049955;28;20029;-65
2021/04/12 06:15:14;;;;;;;6.50;2.20;;;;;;;;;;5050468;28;20032;-65
2021/04/12 06:17:40;;;;;;;7.47;1.95;;;;;;;;;;5052476;28;20029;-66
2021/04/12 06:20:24;;;;;;;6.50;1.95;;;;;;;;;;5054722;28;20115;-65
2021/04/12 06:22:49;;;;;;;6.15;1.95;;;;;;;;;;5053815;28;20032;-66
2021/04/12 06:25:30;;;;;;;6.00;2.15;;;;;;;;;;5054077;28;20116;-65
2021/04/12 06:28:21;;;;;;;3.95;2.05;;;;;;;;;;5053832;28;20044;-65
2021/04/12 06:30:59;;;;;;;6.97;2.10;;;;;;;;;;5053755;28;20102;-65
2021/04/12 06:33:34;;;;;;;6.63;3.17;;;;;;;;;;5053141;28;20029;-66
2021/04/12 06:36:07;;;;;;;5.07;1.95;;;;;;;;;;5058857;28;20032;-66
2021/04/12 06:38:39;;;;;;;6.18;1.95;;;;;;;;;;5053532;28;20110;-66
2021/04/12 06:41:23;;;;;;;4.20;2.03;;;;;;;;;;5053882;28;20043;-66
2021/04/12 06:44:01;;;;;;;4.68;1.92;;;;;;;;;;5053798;28;20028;-65
2021/04/12 06:46:45;;;;;;;5.03;1.77;;;;;;;;;;5053726;28;20044;-66
2021/04/12 06:49:10;;;;;;;4.47;1.70;;;;;;;;;;5053835;28;20085;-66
2021/04/12 06:51:35;;;;;;;4.57;2.05;;;;;;;;;;5053704;28;20436;-66
2021/04/12 06:54:10;;;;;;;3.47;1.90;;;;;;;;;;5053481;28;20070;-66
2021/04/12 06:56:49;;;;;;;5.13;2.10;;;;;;;;;;5053417;28;20032;-66
2021/04/12 06:59:32;;;;;;;12.23;2.20;;;;;;;;;;5053758;28;20036;-66
2021/04/12 07:02:09;;;;;;;6.90;2.05;;;;;;;;;;5053168;28;20102;-66
2021/04/12 07:04:41;;;;;;;4.07;2.20;;;;;;;;;;5053329;28;20091;-66
2021/04/12 07:07:25;;;;;;;5.95;2.15;;;;;;;;;;5053143;28;20530;-66
2021/04/12 07:09:50;;;;;;;7.40;2.05;;;;;;;;;;5053560;28;20060;-65
2021/04/12 07:12:30;;;;;;;6.88;2.50;;;;;;;;;;5053084;28;20476;-66
2021/04/12 07:15:19;;;;;;;5.20;2.13;;;;;;;;;;5052981;28;20444;-66
2021/04/12 07:18:00;;;;;;;3.53;1.67;;;;;;;;;;5049484;28;20029;-66
2021/04/12 07:20:25;;;;;;;6.28;2.08;;;;;;;;;;5050156;28;20508;-66
2021/04/12 07:23:09;;;;;;;7.38;1.92;;;;;;;;;;5049477;28;20126;-66
2021/04/12 07:25:49;;;;;;;2.75;1.80;;;;;;;;;;5050812;28;20410;-66
2021/04/12 07:28:33;;;;;;;3.92;1.80;;;;;;;;;;5047440;28;20111;-66
2021/04/12 07:31:17;;;;;;;4.53;1.58;;;;;;;;;;5049698;28;20071;-66
2021/04/12 07:33:45;;;;;;;3.58;1.60;;;;;;;;;;5050113;28;20048;-66
2021/04/12 07:36:10;;;;;;;3.88;1.52;;;;;;;;;;5049886;28;20041;-66
2021/04/12 07:38:54;;;;;;;2.70;1.35;;;;;;;;;;5049130;28;20035;-66
2021/04/12 07:41:38;;;;;;;2.40;1.42;;;;;;;;;;5050177;28;20028;-66
2021/04/12 07:44:09;;;;;;;3.20;1.77;;;;;;;;;;5049239;28;20048;-66
2021/04/12 07:46:38;;;;;;;2.88;1.35;;;;;;;;;;5049634;28;20059;-66
2021/04/12 07:49:19;;;;;;;2.25;1.45;;;;;;;;;;5049787;28;20162;-66
2021/04/12 07:51:50;;;;;;;2.10;1.45;;;;;;;;;;5049892;28;20520;-66
2021/04/12 07:54:29;;;;;;;1.58;1.10;;;;;;;;;;5048825;28;20033;-66
2021/04/12 07:57:13;;;;;;;1.17;1.02;;;;;;;;;;5049823;28;20424;-67
2021/04/12 07:59:57;;;;;;;1.95;1.00;;;;;;;;;;5049495;28;20025;-67
2021/04/12 08:02:37;;;;;;;0.80;0.80;;;;;;;;;;5049159;28;20128;-67
2021/04/12 08:05:02;;;;;;;1.00;0.70;;;;;;;;;;5048606;28;20033;-67
2021/04/12 08:07:46;;;;;;;4.80;1.15;;;;;;;;;;5049157;28;20031;-67
2021/04/12 08:10:26;;;;;;;1.40;0.80;;;;;;;;;;5045237;28;20507;-67
2021/04/12 08:12:54;;;;;;;1.63;0.80;;;;;;;;;;5049173;28;20116;-67
2021/04/12 08:15:38;;;;;;;0.75;0.70;;;;;;;;;;5042287;28;20033;-66
2021/04/12 08:18:11;;;;;;;1.40;0.85;;;;;;;;;;5042568;28;20060;-67
2021/04/12 08:20:55;;;;;;;0.68;0.68;;;;;;;;;;5047198;28;20404;-67
2021/04/12 08:23:29;;;;;;;1.45;0.80;;;;;;;;;;5041525;28;20068;-66
2021/04/12 08:26:13;;;;;;;0.77;0.60;;;;;;;;;;5043998;28;20063;-67
2021/04/12 08:28:59;;;;;;;0.52;0.47;;;;;;;;;;5043464;28;20482;-67
2021/04/12 08:31:28;;;;;;;0.82;0.50;;;;;;;;;;5037270;28;20037;-66
2021/04/12 08:34:09;;;;;;;0.80;0.70;;;;;;;;;;5042507;28;20083;-67
2021/04/12 08:36:40;;;;;;;0.73;0.60;;;;;;;;;;5041483;28;20489;-67
2021/04/12 08:39:08;;;;;;;1.20;0.60;;;;;;;;;;5040451;28;20075;-67
2021/04/12 08:41:33;;;;;;;0.65;0.60;;;;;;;;;;5042157;28;20076;-67
2021/04/12 08:43:58;;;;;;;1.13;0.88;;;;;;;;;;5041634;28;20068;-67
2021/04/12 08:46:36;;;;;;;1.00;0.88;;;;;;;;;;5031327;28;20036;-67
2021/04/12 08:49:19;;;;;;;0.80;0.80;;;;;;;;;;5039975;28;20032;-67
2021/04/12 08:51:47;;;;;;;0.98;0.82;;;;;;;;;;5040943;28;20488;-67
2021/04/12 08:54:15;;;;;;;0.50;0.50;;;;;;;;;;5042958;28;20064;-67
2021/04/12 08:56:44;;;;;;;1.75;0.82;;;;;;;;;;5039268;28;20498;-68
2021/04/12 08:59:27;;;;;;;0.65;0.60;;;;;;;;;;5041125;28;20091;-68
2021/04/12 09:01:59;;;;;;;0.80;0.70;;;;;;;;;;5042659;28;20439;-68
2021/04/12 09:04:48;;;;;;;0.60;0.60;;;;;;;;;;5041485;28;20033;-65
2021/04/12 09:07:32;;;;;;;0.75;0.60;;;;;;;;;;5041024;28;20036;-65
2021/04/12 09:10:15;;;;;;;0.70;0.70;;;;;;;;;;5039554;28;20033;-65
2021/04/12 09:12:45;;;;;;;0.68;0.57;;;;;;;;;;5040479;28;20032;-65
2021/04/12 09:15:29;;;;;;;3.13;0.60;;;;;;;;;;5038654;28;20029;-66
2021/04/12 09:18:13;;;;;;;0.60;0.60;;;;;;;;;;5038713;28;20040;-65
2021/04/12 09:20:50;;;;;;;0.70;0.70;;;;;;;;;;5039232;28;20033;-65
2021/04/12 09:23:19;;;;;;;0.40;0.40;;;;;;;;;;5038840;28;20044;-65
2021/04/12 09:26:03;;;;;;;1.25;0.90;;;;;;;;;;5040902;28;20544;-65
2021/04/12 09:28:28;;;;;;;1.10;0.80;;;;;;;;;;5040760;28;20433;-65
2021/04/12 09:31:14;;;;;;;0.80;0.80;;;;;;;;;;5038806;28;20098;-65
2021/04/12 09:33:45;;;;;;;0.60;0.60;;;;;;;;;;5023651;28;20059;-65
2021/04/12 09:36:29;;;;;;;0.60;0.60;;;;;;;;;;5036945;28;20128;-65
2021/04/12 09:38:54;;;;;;;1.02;0.80;;;;;;;;;;5034686;28;20048;-65
2021/04/12 09:41:25;;;;;;;0.57;0.57;;;;;;;;;;5035418;28;20033;-65
2021/04/12 09:43:51;;;;;;;0.47;0.47;;;;;;;;;;5036478;28;20094;-65
2021/04/12 09:46:36;;;;;;;0.70;0.70;;;;;;;;;;5037278;28;20753;-65
2021/04/12 09:49:01;;;;;;;1.08;0.88;;;;;;;;;;5036376;28;20056;-65
2021/04/12 09:51:45;;;;;;;0.70;0.70;;;;;;;;;;5035022;28;20458;-65
2021/04/12 09:54:29;;;;;;;0.95;0.80;;;;;;;;;;5039743;28;20044;-65
2021/04/12 09:56:54;;;;;;;1.25;0.55;;;;;;;;;;5040568;28;20040;-65
2021/04/12 09:59:32;;;;;;;0.40;0.40;;;;;;;;;;5039791;28;20060;-65
2021/04/12 10:02:13;;;;;;;0.93;0.52;;;;;;;;;;5039992;28;20049;-65
2021/04/12 10:04:57;;;;;;;0.68;0.63;;;;;;;;;;5039669;28;20029;-67
2021/04/12 10:07:45;;;;;;;2.83;0.93;;;;;;;;;;5038445;28;20043;-67
2021/04/12 10:10:15;;;;;;;0.77;0.75;;;;;;;;;;5040129;28;20032;-67
2021/04/12 10:13:02;;;;;;;1.08;0.55;;;;;;;;;;5039888;28;20162;-67
2021/04/12 10:15:45;;;;;;;0.90;0.63;;;;;;;;;;5038005;28;20068;-67
2021/04/12 10:18:29;;;;;;;0.95;0.60;;;;;;;;;;5039364;28;20035;-67
2021/04/12 10:21:13;;;;;;;2.72;0.68;;;;;;;;;;5039219;28;20045;-67
2021/04/12 10:23:40;;;;;;;2.83;0.60;;;;;;;;;;5040077;28;20040;-67
2021/04/12 10:26:10;;;;;;;1.20;0.90;;;;;;;;;;5039948;28;20140;-67
2021/04/12 10:28:49;;;;;;;0.38;0.38;;;;;;;;;;5039778;28;20055;-67
2021/04/12 10:31:26;;;;;;;2.15;0.65;;;;;;;;;;5039712;28;20060;-67
2021/04/12 10:34:03;;;;;;;0.75;0.43;;;;;;;;;;5040777;28;20060;-67
2021/04/12 10:36:34;;;;;;;0.50;0.50;;;;;;;;;;5040031;28;20555;-67
2021/04/12 10:39:03;;;;;;;0.77;0.50;;;;;;;;;;5040125;28;20060;-67
2021/04/12 10:41:32;;;;;;;1.38;0.60;;;;;;;;;;5043165;28;20595;-67
2021/04/12 10:43:58;;;;;;;0.88;0.50;;;;;;;;;;5042049;28;20029;-67
2021/04/12 10:46:41;;;;;;;1.38;0.60;;;;;;;;;;5041992;28;20032;-67
2021/04/12 10:49:15;;;;;;;1.38;0.50;;;;;;;;;;5042835;28;21055;-66
2021/04/12 10:51:41;;;;;;;0.95;0.60;;;;;;;;;;5039681;28;20041;-66
2021/04/12 10:54:18;;;;;;;1.65;0.80;;;;;;;;;;5039235;28;20052;-66
2021/04/12 10:56:53;;;;;;;1.88;1.20;;;;;;;;;;5039561;28;20623;-66
2021/04/12 10:59:41;;;;;;;3.05;1.90;;;;;;;;;;5020570;28;20037;-66
2021/04/12 11:02:25;;;;;;;1.73;1.17;;;;;;;;;;5020192;28;20049;-67
2021/04/12 11:05:04;;;;;;;4.68;2.38;;;;;;;;;;5040695;28;20076;-66
2021/04/12 11:07:42;;;;;;;2.10;1.20;;;;;;;;;;5039965;28;20029;-66
2021/04/12 11:10:07;;;;;;;4.85;1.90;;;;;;;;;;5039807;28;20277;-66
2021/04/12 11:12:38;;;;;;;1.83;1.40;;;;;;;;;;5038073;28;20493;-67
2021/04/12 11:15:06;;;;;;;2.78;1.05;;;;;;;;;;5038437;28;20883;-66
2021/04/12 11:17:31;;;;;;;2.28;1.10;;;;;;;;;;5038664;28;20028;-66
2021/04/12 11:19:57;;;;;;;3.88;1.80;;;;;;;;;;5037654;28;20036;-66
2021/04/12 11:22:32;;;;;;;5.93;1.42;;;;;;;;;;5038796;28;20047;-66
2021/04/12 11:25:03;;;;;;;1.23;1.00;;;;;;;;;;5039509;28;20416;-66
2021/04/12 11:27:28;;;;;;;1.38;1.05;;;;;;;;;;5039517;28;20032;-67
2021/04/12 11:30:12;;;;;;;2.33;0.85;;;;;;;;;;5038698;28;20024;-67
2021/04/12 11:32:40;;;;;;;1.17;0.57;;;;;;;;;;5039639;28;20091;-66
2021/04/12 11:35:08;;;;;;;1.98;1.00;;;;;;;;;;5040165;28;20478;-66
2021/04/12 11:37:39;;;;;;;2.05;1.10;;;;;;;;;;5039085;28;20029;-66
2021/04/12 11:40:05;;;;;;;1.65;0.98;;;;;;;;;;5038596;28;20045;-66
2021/04/12 11:42:39;;;;;;;1.33;1.00;;;;;;;;;;5038075;28;20036;-66
2021/04/12 11:45:14;;;;;;;1.50;1.05;;;;;;;;;;5038993;28;20020;-67
2021/04/12 11:47:45;;;;;;;2.83;1.25;;;;;;;;;;5033016;28;20060;-66
2021/04/12 11:50:29;;;;;;;1.27;0.98;;;;;;;;;;5038139;28;20025;-66
2021/04/12 11:53:01;;;;;;;1.50;0.98;;;;;;;;;;5036715;28;20033;-66
2021/04/12 11:55:29;;;;;;;1.05;0.82;;;;;;;;;;5039237;28;20503;-67
2021/04/12 11:58:00;;;;;;;2.92;1.00;;;;;;;;;;5038410;28;20029;-66
2021/04/12 12:00:25;;;;;;;3.25;1.13;;;;;;;;;;5038304;28;20091;-67
2021/04/12 12:03:20;;;;;;;0.70;0.70;;;;;;;;;;5039065;28;20488;-66
2021/04/12 12:05:45;;;;;;;1.50;0.90;;;;;;;;;;5020394;28;20111;-66
2021/04/12 12:08:18;;;;;;;1.55;1.10;;;;;;;;;;5037866;28;20527;-66
2021/04/12 12:10:59;;;;;;;1.05;0.73;;;;;;;;;;5038255;28;20044;-67
2021/04/12 12:13:30;;;;;;;2.65;0.93;;;;;;;;;;5037511;28;20103;-66
2021/04/12 12:16:20;;;;;;;1.20;0.80;;;;;;;;;;5037863;28;20025;-66
2021/04/12 12:18:49;;;;;;;1.63;1.00;;;;;;;;;;5039459;28;20033;-67
2021/04/12 12:21:27;;;;;;;2.03;0.80;;;;;;;;;;5038008;28;20041;-66
2021/04/12 12:24:09;;;;;;;2.28;1.10;;;;;;;;;;5037101;28;20379;-66
2021/04/12 12:26:34;;;;;;;4.35;0.90;;;;;;;;;;5040010;28;20102;-66
2021/04/12 12:29:19;;;;;;;1.67;1.08;;;;;;;;;;5037688;28;20440;-66
2021/04/12 12:31:51;;;;;;;1.85;0.70;;;;;;;;;;5038618;28;20036;-66
2021/04/12 12:34:29;;;;;;;4.07;0.93;;;;;;;;;;5039530;28;20037;-66
2021/04/12 12:36:56;;;;;;;1.33;0.80;;;;;;;;;;5037557;28;20029;-66
2021/04/12 12:39:28;;;;;;;1.48;0.80;;;;;;;;;;5036984;28;20080;-66
2021/04/12 12:41:54;;;;;;;3.47;0.90;;;;;;;;;;5035316;28;20084;-66
2021/04/12 12:44:22;;;;;;;1.77;0.90;;;;;;;;;;5037962;28;20413;-66
2021/04/12 12:46:48;;;;;;;1.70;0.85;;;;;;;;;;5038262;28;20044;-66
2021/04/12 12:49:27;;;;;;;4.05;0.77;;;;;;;;;;5038348;28;20503;-67
2021/04/12 12:51:56;;;;;;;1.48;0.70;;;;;;;;;;5038017;28;20037;-67
2021/04/12 12:54:33;;;;;;;4.25;1.20;;;;;;;;;;5038502;28;20060;-66
2021/04/12 12:57:05;;;;;;;0.93;0.70;;;;;;;;;;5037768;28;20039;-67
2021/04/12 12:59:36;;;;;;;1.17;0.55;;;;;;;;;;5034764;28;20043;-66
2021/04/12 13:02:11;;;;;;;2.30;0.88;;;;;;;;;;5038312;28;20095;-66
2021/04/12 13:04:36;;;;;;;5.82;1.48;;;;;;;;;;5038088;28;20040;-66
2021/04/12 13:07:12;;;;;;;1.00;0.70;;;;;;;;;;5038216;28;20061;-67
2021/04/12 13:09:51;;;;;;;1.73;0.88;;;;;;;;;;5037612;28;20036;-66
2021/04/12 13:12:17;;;;;;;1.30;0.93;;;;;;;;;;5037363;28;20044;-67
2021/04/12 13:14:43;;;;;;;3.10;0.80;;;;;;;;;;5039046;28;20033;-67
2021/04/12 13:17:14;;;;;;;1.75;1.00;;;;;;;;;;5038871;28;20116;-66
2021/04/12 13:19:44;;;;;;;0.85;0.68;;;;;;;;;;5038951;28;20044;-66
2021/04/12 13:22:10;;;;;;;1.50;0.90;;;;;;;;;;5035546;28;20049;-66
2021/04/12 13:24:36;;;;;;;1.15;0.70;;;;;;;;;;5038816;28;20020;-66
2021/04/12 13:27:05;;;;;;;1.52;0.80;;;;;;;;;;5040743;28;20025;-66
2021/04/12 13:29:49;;;;;;;0.70;0.68;;;;;;;;;;5040641;28;20515;-67
2021/04/12 13:32:40;;;;;;;1.92;0.80;;;;;;;;;;5040267;28;20033;-66
2021/04/12 13:35:06;;;;;;;0.98;0.68;;;;;;;;;;5038019;28;20041;-66
2021/04/12 13:37:34;;;;;;;2.17;1.02;;;;;;;;;;5040771;28;20033;-66
2021/04/12 13:40:03;;;;;;;1.73;0.80;;;;;;;;;;5040125;28;20053;-66
2021/04/12 13:42:33;;;;;;;1.73;0.63;;;;;;;;;;5040939;28;20115;-66
2021/04/12 13:45:09;;;;;;;6.10;0.93;;;;;;;;;;5040915;28;20120;-66
2021/04/12 13:47:41;;;;;;;2.15;0.70;;;;;;;;;;5039918;28;20037;-66
2021/04/12 13:50:15;;;;;;;1.27;0.70;;;;;;;;;;5041417;28;20056;-66
2021/04/12 13:52:45;;;;;;;3.30;0.60;;;;;;;;;;5040430;28;20068;-66
2021/04/12 13:55:13;;;;;;;1.40;0.70;;;;;;;;;;5039320;28;20079;-66
2021/04/12 13:57:46;;;;;;;3.15;0.90;;;;;;;;;;5040343;28;20498;-66
2021/04/12 14:00:20;;;;;;;1.88;0.65;;;;;;;;;;5039786;28;20895;-66
2021/04/12 14:03:09;;;;;;;4.00;0.90;;;;;;;;;;5040172;28;20048;-67
2021/04/12 14:05:36;;;;;;;1.98;0.75;;;;;;;;;;5026158;28;20063;-66
2021/04/12 14:08:10;;;;;;;1.80;0.90;;;;;;;;;;5040169;28;20572;-66
2021/04/12 14:10:59;;;;;;;1.38;0.77;;;;;;;;;;5038511;28;20075;-67
2021/04/12 14:13:39;;;;;;;4.10;1.00;;;;;;;;;;5030060;28;20033;-66
2021/04/12 14:16:10;;;;;;;2.17;0.85;;;;;;;;;;5039781;28;20061;-66
2021/04/12 14:18:43;;;;;;;1.65;0.90;;;;;;;;;;5040280;28;20044;-66
2021/04/12 14:21:18;;;;;;;3.40;1.17;;;;;;;;;;5038672;28;20028;-66
2021/04/12 14:23:46;;;;;;;3.38;0.93;;;;;;;;;;5039178;28;20394;-66
2021/04/12 14:26:14;;;;;;;1.50;0.68;;;;;;;;;;5039578;28;20321;-66
2021/04/12 14:28:46;;;;;;;2.53;0.80;;;;;;;;;;5040521;28;20041;-66
2021/04/12 14:31:24;;;;;;;2.78;0.73;;;;;;;;;;5040244;28;20152;-66
2021/04/12 14:33:51;;;;;;;3.63;0.95;;;;;;;;;;5039526;28;20804;-67
2021/04/12 14:36:22;;;;;;;3.63;0.73;;;;;;;;;;5043926;28;20543;-66
2021/04/12 14:38:49;;;;;;;1.45;0.80;;;;;;;;;;5046912;28;20135;-66
2021/04/12 14:41:16;;;;;;;1.42;0.75;;;;;;;;;;5039595;28;20025;-66
2021/04/12 14:44:02;;;;;;;1.00;0.60;;;;;;;;;;5040823;28;20064;-66
2021/04/12 14:46:40;;;;;;;2.40;1.00;;;;;;;;;;5041460;28;20119;-66
2021/04/12 14:49:09;;;;;;;1.67;0.82;;;;;;;;;;5041065;28;20025;-66
2021/04/12 14:51:37;;;;;;;2.17;0.75;;;;;;;;;;5039794;28;20070;-66
2021/04/12 14:54:11;;;;;;;1.98;0.75;;;;;;;;;;5039743;28;20108;-67
2021/04/12 14:56:45;;;;;;;0.73;0.63;;;;;;;;;;5043020;28;20048;-66
2021/04/12 14:59:11;;;;;;;5.28;0.80;;;;;;;;;;5043673;28;20179;-66
2021/04/12 15:01:39;;;;;;;2.53;0.70;;;;;;;;;;5036317;28;20098;-66
2021/04/12 15:04:17;;;;;;;2.22;0.95;;;;;;;;;;5038243;28;20037;-66
2021/04/12 15:07:07;;;;;;;2.38;0.80;;;;;;;;;;5040928;28;20043;-66
2021/04/12 15:09:35;;;;;;;2.00;0.60;;;;;;;;;;5027991;28;20126;-66
2021/04/12 15:12:17;;;;;;;0.55;0.55;;;;;;;;;;5040036;28;20036;-65
2021/04/12 15:14:45;;;;;;;1.20;0.68;;;;;;;;;;5039226;28;20123;-66
2021/04/12 15:17:14;;;;;;;1.58;0.60;;;;;;;;;;5038926;28;20033;-66
2021/04/12 15:19:45;;;;;;;4.25;0.70;;;;;;;;;;5038903;28;20377;-66
2021/04/12 15:22:12;;;;;;;0.88;0.60;;;;;;;;;;5038331;28;20060;-66
2021/04/12 15:24:41;;;;;;;4.32;0.70;;;;;;;;;;5038933;28;20041;-66
2021/04/12 15:27:18;;;;;;;2.47;0.75;;;;;;;;;;5039286;28;20025;-66
2021/04/12 15:29:49;;;;;;;2.75;0.88;;;;;;;;;;5038556;28;20540;-66